TimeEST,TemperatureF,Dew PointF,Humidity,Sea Level PressureIn,VisibilityMPH,Wind Direction,Wind SpeedMPH,Gust SpeedMPH,PrecipitationIn,Events,Conditions,WindDirDegrees,DateUTC
12:01 AM,35.6,30.2,81,29.51,0.8,NE,10.4,-,0.00,Snow,Light Snow,50,2013-02-27 05:01:00
12:16 AM,35.6,30.2,81,29.51,1.0,NE,10.4,-,0.00,Snow,Light Snow,40,2013-02-27 05:16:00
12:28 AM,35.6,30.2,81,29.50,1.8,NE,9.2,-,0.00,Snow,Light Snow,50,2013-02-27 05:28:00
12:48 AM,35.6,30.2,81,29.50,1.2,NE,10.4,-,0.00,Snow,Light Snow,50,2013-02-27 05:48:00
12:53 AM,35.1,30.9,85,29.52,1.2,NE,10.4,18.4,0.00,Snow,Light Snow,50,2013-02-27 05:53:00
1:26 AM,35.6,32.0,87,29.50,2.0,NE,6.9,-,0.00,Snow,Light Snow,40,2013-02-27 06:26:00
1:53 AM,35.1,30.9,85,29.51,2.0,NE,8.1,-,0.00,Snow,Light Snow,50,2013-02-27 06:53:00
2:22 AM,35.6,30.2,81,29.50,1.8,NE,8.1,-,0.00,Snow,Light Snow,50,2013-02-27 07:22:00
2:29 AM,35.6,30.2,81,29.50,1.8,NE,8.1,-,0.00,Snow,Light Snow,50,2013-02-27 07:29:00
2:36 AM,35.6,30.2,81,29.49,2.0,NE,6.9,-,0.00,Snow,Light Snow,40,2013-02-27 07:36:00
2:53 AM,35.1,30.9,85,29.51,3.0,NE,6.9,-,0.00,,Overcast,40,2013-02-27 07:53:00
3:34 AM,35.6,30.2,81,29.48,9.0,NE,6.9,-,N/A,,Overcast,50,2013-02-27 08:34:00
3:53 AM,35.1,30.9,85,29.50,10.0,NE,6.9,-,N/A,,Overcast,40,2013-02-27 08:53:00
4:02 AM,35.6,30.2,81,29.48,10.0,NE,5.8,-,N/A,,Overcast,40,2013-02-27 09:02:00
4:53 AM,35.1,30.9,85,29.50,7.0,NNE,5.8,-,N/A,,Overcast,30,2013-02-27 09:53:00
5:22 AM,35.6,32.0,87,29.48,2.5,NNE,4.6,-,0.00,Snow,Light Snow,20,2013-02-27 10:22:00
5:53 AM,35.1,32.0,89,29.50,2.0,NNE,4.6,-,0.00,Snow,Light Snow,20,2013-02-27 10:53:00
6:21 AM,35.6,30.2,81,29.48,4.0,NNE,5.8,-,0.00,,Overcast,20,2013-02-27 11:21:00
7:30 AM,35.6,32.0,87,29.49,6.0,NNE,4.6,-,0.01,,Overcast,30,2013-02-27 12:30:00
7:47 AM,35.6,32.0,87,29.50,1.8,NNE,4.6,-,0.01,Snow,Light Snow,30,2013-02-27 12:47:00
7:53 AM,35.1,32.0,89,29.52,1.2,NNE,3.5,-,0.01,Snow,Light Snow,20,2013-02-27 12:53:00
8:36 AM,35.6,32.0,87,29.52,1.5,Calm,Calm,-,0.00,Snow,Light Snow,0,2013-02-27 13:36:00
8:53 AM,36.0,32.0,86,29.54,1.5,Calm,Calm,-,0.00,Snow,Light Snow,0,2013-02-27 13:53:00
9:40 AM,35.6,32.0,87,29.52,2.5,North,3.5,-,0.00,Snow,Light Snow,10,2013-02-27 14:40:00
9:49 AM,37.4,33.8,87,29.52,3.0,NNE,3.5,-,0.01,Snow,Light Snow,20,2013-02-27 14:49:00
10:03 AM,37.4,32.0,81,29.52,4.0,NNE,3.5,-,0.01,Snow,Light Snow,20,2013-02-27 15:03:00
10:53 AM,37.0,32.0,82,29.54,7.0,NNE,4.6,-,0.08,,Overcast,30,2013-02-27 15:53:00
11:53 AM,37.9,32.0,79,29.55,10.0,NE,4.6,-,0.10,,Overcast,40,2013-02-27 16:53:00
12:53 PM,37.9,33.1,83,29.54,3.0,NE,4.6,-,0.09,,Haze,40,2013-02-27 17:53:00
1:20 PM,37.4,33.8,87,29.52,9.0,NE,4.6,-,0.05,,Overcast,40,2013-02-27 18:20:00
1:37 PM,37.4,32.0,81,29.52,10.0,NE,3.5,-,0.08,,Overcast,40,2013-02-27 18:37:00
1:53 PM,37.9,32.0,79,29.54,10.0,Calm,Calm,-,0.10,,Overcast,0,2013-02-27 18:53:00
2:36 PM,39.2,32.0,75,29.53,10.0,Calm,Calm,-,0.03,,Overcast,0,2013-02-27 19:36:00
2:53 PM,37.9,32.0,79,29.55,7.0,Calm,Calm,-,0.04,,Overcast,0,2013-02-27 19:53:00
3:10 PM,37.4,33.8,87,29.53,4.0,Calm,Calm,-,0.01,,Haze,0,2013-02-27 20:10:00
3:27 PM,37.4,33.8,87,29.54,5.0,Calm,Calm,-,0.02,,Haze,0,2013-02-27 20:27:00
3:35 PM,37.4,33.8,87,29.53,4.0,Calm,Calm,-,0.02,,Haze,0,2013-02-27 20:35:00
3:53 PM,37.9,33.1,83,29.56,3.0,Calm,Calm,-,0.03,,Haze,0,2013-02-27 20:53:00
4:11 PM,37.4,33.8,87,29.54,3.0,North,3.5,-,0.01,,Haze,10,2013-02-27 21:11:00
4:19 PM,37.4,33.8,87,29.54,2.0,North,4.6,-,0.01,,Overcast,10,2013-02-27 21:19:00
4:27 PM,37.4,33.8,87,29.54,2.5,North,3.5,-,0.01,,Overcast,350,2013-02-27 21:27:00
4:40 PM,37.4,33.8,87,29.55,2.5,North,3.5,-,0.01,,Overcast,350,2013-02-27 21:40:00
4:49 PM,37.4,33.8,87,29.55,3.0,Variable,3.5,-,0.02,,Overcast,0,2013-02-27 21:49:00
4:53 PM,37.0,33.1,86,29.57,3.0,NNE,3.5,-,0.02,,Overcast,20,2013-02-27 21:53:00
5:53 PM,37.0,33.1,86,29.58,5.0,North,4.6,-,N/A,,Overcast,360,2013-02-27 22:53:00
6:30 PM,37.4,32.0,81,29.58,4.0,North,3.5,-,N/A,,Haze,360,2013-02-27 23:30:00
6:42 PM,35.6,32.0,87,29.58,4.0,North,4.6,-,N/A,,Overcast,360,2013-02-27 23:42:00
6:53 PM,36.0,33.1,89,29.60,5.0,North,4.6,-,0.01,,Overcast,360,2013-02-27 23:53:00
7:53 PM,36.0,33.1,89,29.61,5.0,North,4.6,-,N/A,,Overcast,360,2013-02-28 00:53:00
9:53 PM,37.0,32.0,82,29.63,10.0,North,4.6,-,N/A,,Overcast,350,2013-02-28 02:53:00
10:53 PM,36.0,32.0,86,29.63,9.0,North,5.8,-,0.01,,Overcast,350,2013-02-28 03:53:00
11:53 PM,36.0,30.9,82,29.64,6.0,North,4.6,-,0.00,Snow,Light Snow,350,2013-02-28 04:53:00